Time,TemperatureF,DewpointF,PressureIn,WindDirection,WindDirectionDegrees,WindSpeedMPH,WindSpeedGustMPH,Humidity,HourlyPrecipIn,Conditions,Clouds,dailyrainin,SoftwareType,DateUTC
2013-05-29 00:01:00,50.4,49.3,29.82,North,356,0.0,1.0,96,0.00,,,0.00,WeatherCatV1.15B25,2013-05-29 07:01:00,
2013-05-29 00:06:00,50.4,49.3,29.82,NW,318,0.0,1.0,96,0.00,,,0.00,WeatherCatV1.15B25,2013-05-29 07:06:00,
2013-05-29 00:11:00,50.4,49.3,29.82,NW,317,0.0,0.0,96,0.00,,,0.00,WeatherCatV1.15B25,2013-05-29 07:11:00,
2013-05-29 00:16:00,50.4,49.3,29.81,NNW,339,1.0,1.0,96,0.00,,,0.00,WeatherCatV1.15B25,2013-05-29 07:16:00,
2013-05-29 00:21:00,50.4,49.3,29.81,NE,44,2.0,3.0,96,0.00,,,0.00,WeatherCatV1.15B25,2013-05-29 07:21:00,
2013-05-29 00:26:00,50.4,49.3,29.81,NE,43,0.0,1.0,96,0.00,,,0.00,WeatherCatV1.15B25,2013-05-29 07:26:00,
2013-05-29 00:31:00,50.3,49.2,29.81,NNW,329,1.0,1.0,96,0.00,,,0.00,WeatherCatV1.15B25,2013-05-29 07:31:00,
2013-05-29 00:36:00,50.2,49.1,29.80,NNW,335,0.0,1.0,96,0.00,,,0.00,WeatherCatV1.15B25,2013-05-29 07:36:00,
2013-05-29 00:41:00,50.2,49.1,29.80,NNW,333,0.0,1.0,96,0.00,,,0.00,WeatherCatV1.15B25,2013-05-29 07:41:00,
2013-05-29 00:46:00,50.2,49.1,29.80,NNW,335,0.0,1.0,96,0.00,,,0.00,WeatherCatV1.15B25,2013-05-29 07:46:00,
2013-05-29 00:51:00,50.2,49.1,29.80,NNW,335,0.0,0.0,96,0.00,,,0.00,WeatherCatV1.15B25,2013-05-29 07:51:00,
2013-05-29 00:56:00,50.2,49.1,29.80,NNW,335,0.0,1.0,96,0.00,,,0.00,WeatherCatV1.15B25,2013-05-29 07:56:00,
2013-05-29 01:01:00,50.2,49.1,29.80,NNW,335,0.0,1.0,96,0.00,,,0.00,WeatherCatV1.15B25,2013-05-29 08:01:00,
2013-05-29 01:06:00,50.2,49.1,29.80,NNW,335,0.0,0.0,96,0.00,,,0.00,WeatherCatV1.15B25,2013-05-29 08:06:00,
2013-05-29 01:11:00,50.1,49.0,29.80,NNW,335,0.0,0.0,96,0.00,,,0.00,WeatherCatV1.15B25,2013-05-29 08:11:00,
2013-05-29 01:16:00,50.1,49.0,29.80,NNW,335,0.0,0.0,96,0.00,,,0.00,WeatherCatV1.15B25,2013-05-29 08:16:00,
2013-05-29 01:21:00,50.1,49.0,29.79,NNW,335,0.0,0.0,96,0.00,,,0.00,WeatherCatV1.15B25,2013-05-29 08:21:00,
2013-05-29 01:26:00,50.1,49.0,29.79,NE,56,1.0,1.0,96,0.00,,,0.00,WeatherCatV1.15B25,2013-05-29 08:26:00,
2013-05-29 01:31:00,50.0,48.9,29.79,NE,54,1.0,1.0,96,0.00,,,0.00,WeatherCatV1.15B25,2013-05-29 08:31:00,
2013-05-29 01:36:00,49.9,48.8,29.79,NE,54,0.0,0.0,96,0.00,,,0.00,WeatherCatV1.15B25,2013-05-29 08:36:00,
2013-05-29 01:41:00,49.8,48.7,29.78,NE,36,1.0,2.0,96,0.00,,,0.00,WeatherCatV1.15B25,2013-05-29 08:41:00,
2013-05-29 01:46:00,49.6,48.5,29.78,NE,36,1.0,2.0,96,0.00,,,0.00,WeatherCatV1.15B25,2013-05-29 08:46:00,
2013-05-29 01:51:00,49.4,48.3,29.77,NE,38,1.0,2.0,96,0.00,,,0.00,WeatherCatV1.15B25,2013-05-29 08:51:00,
2013-05-29 01:54:00,49.4,48.3,29.77,NE,38,2.0,2.0,96,0.00,,,0.00,WeatherCatV1.15B25,2013-05-29 08:54:00,
2013-05-29 02:00:00,49.3,48.2,29.77,NE,43,1.0,1.0,96,0.00,,,0.00,WeatherCatV1.15B25,2013-05-29 09:00:00,
2013-05-29 02:05:00,49.2,48.1,29.77,NNE,17,0.0,1.0,96,0.00,,,0.00,WeatherCatV1.15B25,2013-05-29 09:05:00,
2013-05-29 02:10:00,49.2,48.1,29.77,NNE,17,1.0,1.0,96,0.00,,,0.00,WeatherCatV1.15B25,2013-05-29 09:10:00,
2013-05-29 02:15:00,49.1,48.0,29.76,North,6,0.0,1.0,96,0.00,,,0.00,WeatherCatV1.15B25,2013-05-29 09:15:00,
2013-05-29 02:20:00,48.9,47.8,29.76,North,6,1.0,1.0,96,0.00,,,0.00,WeatherCatV1.15B25,2013-05-29 09:20:00,
2013-05-29 02:25:00,48.8,47.7,29.76,North,6,0.0,1.0,96,0.00,,,0.00,WeatherCatV1.15B25,2013-05-29 09:25:00,
2013-05-29 02:30:00,48.8,47.7,29.76,North,6,1.0,1.0,96,0.00,,,0.00,WeatherCatV1.15B25,2013-05-29 09:30:00,
2013-05-29 02:35:00,48.7,47.6,29.75,North,8,0.0,2.0,96,0.00,,,0.00,WeatherCatV1.15B25,2013-05-29 09:35:00,
2013-05-29 02:40:00,48.6,47.5,29.75,North,0,1.0,2.0,96,0.00,,,0.00,WeatherCatV1.15B25,2013-05-29 09:40:00,
2013-05-29 02:45:00,48.6,47.5,29.75,NNE,22,1.0,1.0,96,0.00,,,0.00,WeatherCatV1.15B25,2013-05-29 09:45:00,
2013-05-29 02:50:00,48.7,47.6,29.75,NNE,22,1.0,1.0,96,0.00,,,0.00,WeatherCatV1.15B25,2013-05-29 09:50:00,
2013-05-29 02:55:00,48.8,47.4,29.75,NE,41,0.0,2.0,95,0.00,,,0.00,WeatherCatV1.15B25,2013-05-29 09:55:00,
2013-05-29 03:00:00,48.9,47.5,29.75,NE,54,1.0,2.0,95,0.00,,,0.00,WeatherCatV1.15B25,2013-05-29 10:00:00,
2013-05-29 03:05:00,48.9,47.5,29.75,NE,53,1.0,1.0,95,0.00,,,0.00,WeatherCatV1.15B25,2013-05-29 10:05:00,
2013-05-29 03:10:00,48.9,47.5,29.74,NW,322,2.0,2.0,95,0.00,,,0.00,WeatherCatV1.15B25,2013-05-29 10:10:00,
2013-05-29 03:15:00,49.0,47.3,29.74,NNE,17,0.0,1.0,94,0.00,,,0.00,WeatherCatV1.15B25,2013-05-29 10:15:00,
2013-05-29 03:20:00,49.2,47.5,29.74,NNE,17,0.0,1.0,94,0.00,,,0.00,WeatherCatV1.15B25,2013-05-29 10:20:00,
2013-05-29 03:25:00,49.2,47.5,29.74,SSE,149,0.0,0.0,94,0.00,,,0.00,WeatherCatV1.15B25,2013-05-29 10:25:00,
2013-05-29 03:30:00,49.2,47.5,29.74,SSE,149,0.0,0.0,94,0.00,,,0.00,WeatherCatV1.15B25,2013-05-29 10:30:00,
2013-05-29 03:35:00,49.2,47.5,29.74,SSE,149,1.0,1.0,94,0.00,,,0.00,WeatherCatV1.15B25,2013-05-29 10:35:00,
2013-05-29 03:40:00,49.2,47.8,29.74,WNW,291,1.0,1.0,95,0.00,,,0.00,WeatherCatV1.15B25,2013-05-29 10:40:00,
2013-05-29 03:45:00,49.2,47.8,29.75,South,186,2.0,5.0,95,0.00,,,0.00,WeatherCatV1.15B25,2013-05-29 10:45:00,
2013-05-29 03:50:00,49.2,48.1,29.75,South,181,5.0,5.0,96,0.00,,,0.00,WeatherCatV1.15B25,2013-05-29 10:50:00,
2013-05-29 03:55:00,49.2,48.1,29.75,West,266,1.0,4.0,96,0.00,,,0.00,WeatherCatV1.15B25,2013-05-29 10:55:00,
2013-05-29 04:00:00,49.3,48.2,29.75,West,264,2.0,4.0,96,0.00,,,0.00,WeatherCatV1.15B25,2013-05-29 11:00:00,
2013-05-29 04:05:00,49.3,48.5,29.75,West,259,2.0,6.0,97,0.00,,,0.01,WeatherCatV1.15B25,2013-05-29 11:05:00,
2013-05-29 04:10:00,49.4,48.6,29.75,West,262,3.0,5.0,97,0.14,,,0.02,WeatherCatV1.15B25,2013-05-29 11:10:00,
2013-05-29 04:15:00,49.4,48.6,29.75,SSE,153,0.0,3.0,97,0.10,,,0.03,WeatherCatV1.15B25,2013-05-29 11:15:00,
2013-05-29 04:20:00,49.3,48.5,29.75,WSW,239,1.0,1.0,97,0.09,,,0.03,WeatherCatV1.15B25,2013-05-29 11:20:00,
2013-05-29 04:25:00,49.2,48.4,29.75,West,260,0.0,3.0,97,0.05,,,0.03,WeatherCatV1.15B25,2013-05-29 11:25:00,
2013-05-29 04:30:00,49.2,48.4,29.75,WSW,242,1.0,3.0,97,0.04,,,0.04,WeatherCatV1.15B25,2013-05-29 11:30:00,
2013-05-29 04:35:00,49.1,48.3,29.75,WNW,297,2.0,3.0,97,0.04,,,0.04,WeatherCatV1.15B25,2013-05-29 11:35:00,
2013-05-29 04:40:00,48.9,48.1,29.75,NNW,348,0.0,3.0,97,0.04,,,0.04,WeatherCatV1.15B25,2013-05-29 11:40:00,
2013-05-29 04:45:00,48.8,48.0,29.75,NNE,12,1.0,3.0,97,0.00,,,0.04,WeatherCatV1.15B25,2013-05-29 11:45:00,
2013-05-29 04:50:00,48.8,48.0,29.75,NNE,26,0.0,3.0,97,0.00,,,0.04,WeatherCatV1.15B25,2013-05-29 11:50:00,
2013-05-29 04:55:00,48.8,48.0,29.74,NNE,20,0.0,0.0,97,0.00,,,0.05,WeatherCatV1.15B25,2013-05-29 11:55:00,
2013-05-29 05:00:00,48.9,48.1,29.74,NW,304,1.0,2.0,97,0.00,,,0.05,WeatherCatV1.15B25,2013-05-29 12:00:00,
2013-05-29 05:05:00,48.9,48.1,29.74,WNW,295,3.0,3.0,97,0.00,,,0.05,WeatherCatV1.15B25,2013-05-29 12:05:00,
2013-05-29 05:10:00,48.8,48.0,29.75,WNW,297,2.0,3.0,97,0.00,,,0.05,WeatherCatV1.15B25,2013-05-29 12:10:00,
2013-05-29 05:15:00,48.7,47.9,29.74,NNW,335,1.0,2.0,97,0.00,,,0.05,WeatherCatV1.15B25,2013-05-29 12:15:00,
2013-05-29 05:20:00,48.5,47.7,29.74,NW,314,1.0,1.0,97,0.00,,,0.06,WeatherCatV1.15B25,2013-05-29 12:20:00,
2013-05-29 05:25:00,48.5,47.7,29.75,NW,314,0.0,0.0,97,0.00,,,0.06,WeatherCatV1.15B25,2013-05-29 12:25:00,
2013-05-29 05:30:00,48.5,47.7,29.75,WNW,288,0.0,1.0,97,0.00,,,0.06,WeatherCatV1.15B25,2013-05-29 12:30:00,
2013-05-29 05:35:00,48.4,47.6,29.75,NW,315,1.0,6.0,97,0.00,,,0.06,WeatherCatV1.15B25,2013-05-29 12:35:00,
2013-05-29 05:40:00,48.3,47.5,29.75,WNW,283,1.0,4.0,97,0.00,,,0.06,WeatherCatV1.15B25,2013-05-29 12:40:00,
2013-05-29 05:45:00,48.2,47.4,29.75,NW,321,1.0,2.0,97,0.00,,,0.06,WeatherCatV1.15B25,2013-05-29 12:45:00,
2013-05-29 05:50:00,48.1,47.3,29.75,West,281,1.0,2.0,97,0.00,,,0.07,WeatherCatV1.15B25,2013-05-29 12:50:00,
2013-05-29 05:55:00,48.0,47.2,29.75,WNW,290,1.0,2.0,97,0.00,,,0.07,WeatherCatV1.15B25,2013-05-29 12:55:00,
2013-05-29 06:00:00,48.0,47.2,29.75,WNW,291,1.0,1.0,97,0.00,,,0.07,WeatherCatV1.15B25,2013-05-29 13:00:00,
2013-05-29 06:05:00,47.9,47.1,29.75,NW,307,0.0,2.0,97,0.05,,,0.08,WeatherCatV1.15B25,2013-05-29 13:05:00,
2013-05-29 06:10:00,47.9,47.1,29.75,NNE,29,0.0,1.0,97,0.05,,,0.08,WeatherCatV1.15B25,2013-05-29 13:10:00,
2013-05-29 06:15:00,47.8,47.0,29.75,NNE,12,1.0,4.0,97,0.05,,,0.08,WeatherCatV1.15B25,2013-05-29 13:15:00,
2013-05-29 06:20:00,47.9,47.1,29.75,North,11,0.0,1.0,97,0.00,,,0.08,WeatherCatV1.15B25,2013-05-29 13:20:00,
2013-05-29 06:25:00,48.0,47.2,29.75,WNW,301,1.0,1.0,97,0.00,,,0.08,WeatherCatV1.15B25,2013-05-29 13:25:00,
2013-05-29 06:30:00,48.0,47.2,29.75,North,351,1.0,1.0,97,0.00,,,0.08,WeatherCatV1.15B25,2013-05-29 13:30:00,
2013-05-29 06:35:00,48.1,47.3,29.75,WNW,291,1.0,1.0,97,0.00,,,0.08,WeatherCatV1.15B25,2013-05-29 13:35:00,
2013-05-29 06:40:00,48.1,47.3,29.75,WNW,284,1.0,2.0,97,0.00,,,0.08,WeatherCatV1.15B25,2013-05-29 13:40:00,
2013-05-29 06:45:00,48.2,47.4,29.75,NNW,329,1.0,2.0,97,0.00,,,0.09,WeatherCatV1.15B25,2013-05-29 13:45:00,
2013-05-29 06:50:00,48.1,47.3,29.75,NW,314,1.0,4.0,97,0.00,,,0.09,WeatherCatV1.15B25,2013-05-29 13:50:00,
2013-05-29 06:55:00,48.1,47.3,29.75,NNW,335,1.0,3.0,97,0.00,,,0.09,WeatherCatV1.15B25,2013-05-29 13:55:00,
2013-05-29 07:00:00,48.3,47.5,29.75,WNW,283,1.0,1.0,97,0.00,,,0.09,WeatherCatV1.15B25,2013-05-29 14:00:00,
2013-05-29 07:05:00,48.4,47.6,29.75,NW,316,0.0,1.0,97,0.00,,,0.09,WeatherCatV1.15B25,2013-05-29 14:05:00,
2013-05-29 07:10:00,48.5,47.7,29.75,NW,304,0.0,2.0,97,0.00,,,0.09,WeatherCatV1.15B25,2013-05-29 14:10:00,
2013-05-29 07:15:00,48.5,47.7,29.75,WNW,294,1.0,2.0,97,0.00,,,0.09,WeatherCatV1.15B25,2013-05-29 14:15:00,
2013-05-29 07:20:00,48.6,47.8,29.75,WNW,294,1.0,2.0,97,0.00,,,0.10,WeatherCatV1.15B25,2013-05-29 14:20:00,
2013-05-29 07:25:00,48.7,47.9,29.75,WNW,283,1.0,2.0,97,0.00,,,0.10,WeatherCatV1.15B25,2013-05-29 14:25:00,
2013-05-29 07:30:00,48.9,48.1,29.75,NNW,342,1.0,1.0,97,0.00,,,0.10,WeatherCatV1.15B25,2013-05-29 14:30:00,
2013-05-29 07:35:00,49.0,48.2,29.75,WNW,302,1.0,1.0,97,0.00,,,0.10,WeatherCatV1.15B25,2013-05-29 14:35:00,
2013-05-29 07:40:00,49.3,48.5,29.75,NW,323,3.0,3.0,97,0.00,,,0.10,WeatherCatV1.15B25,2013-05-29 14:40:00,
2013-05-29 07:45:00,49.2,48.1,29.75,NW,312,2.0,3.0,96,0.00,,,0.10,WeatherCatV1.15B25,2013-05-29 14:45:00,
2013-05-29 07:50:00,49.2,48.1,29.75,NW,314,1.0,2.0,96,0.00,,,0.10,WeatherCatV1.15B25,2013-05-29 14:50:00,
2013-05-29 07:55:00,49.3,48.2,29.75,NW,316,1.0,2.0,96,0.00,,,0.10,WeatherCatV1.15B25,2013-05-29 14:55:00,
2013-05-29 08:00:00,49.5,48.4,29.75,NNW,331,0.0,1.0,96,0.00,,,0.10,WeatherCatV1.15B25,2013-05-29 15:00:00,
2013-05-29 08:05:00,49.7,48.6,29.75,North,5,2.0,3.0,96,0.00,,,0.10,WeatherCatV1.15B25,2013-05-29 15:05:00,
2013-05-29 08:10:00,49.8,48.7,29.76,NNW,330,0.0,0.0,96,0.00,,,0.10,WeatherCatV1.15B25,2013-05-29 15:10:00,
2013-05-29 08:15:00,50.0,48.9,29.76,WNW,291,2.0,2.0,96,0.00,,,0.10,WeatherCatV1.15B25,2013-05-29 15:15:00,
2013-05-29 08:20:00,50.1,48.7,29.76,NW,304,2.0,3.0,95,0.00,,,0.10,WeatherCatV1.15B25,2013-05-29 15:20:00,
2013-05-29 08:25:00,50.2,49.1,29.76,WNW,295,0.0,1.0,96,0.00,,,0.10,WeatherCatV1.15B25,2013-05-29 15:25:00,
2013-05-29 08:30:00,50.4,49.0,29.76,NW,311,2.0,2.0,95,0.00,,,0.10,WeatherCatV1.15B25,2013-05-29 15:30:00,
2013-05-29 08:35:00,50.5,49.1,29.76,NNW,343,0.0,2.0,95,0.00,,,0.10,WeatherCatV1.15B25,2013-05-29 15:35:00,
2013-05-29 08:40:00,50.8,49.4,29.76,NNE,14,1.0,4.0,95,0.00,,,0.10,WeatherCatV1.15B25,2013-05-29 15:40:00,
2013-05-29 08:45:00,51.0,49.9,29.76,NNE,25,2.0,2.0,96,0.00,,,0.10,WeatherCatV1.15B25,2013-05-29 15:45:00,
2013-05-29 08:50:00,51.0,49.6,29.76,North,9,0.0,3.0,95,0.00,,,0.10,WeatherCatV1.15B25,2013-05-29 15:50:00,
2013-05-29 08:55:00,51.2,49.5,29.76,WNW,287,0.0,2.0,94,0.00,,,0.10,WeatherCatV1.15B25,2013-05-29 15:55:00,
2013-05-29 09:00:00,51.7,50.3,29.76,NE,47,1.0,2.0,95,0.00,,,0.10,WeatherCatV1.15B25,2013-05-29 16:00:00,
2013-05-29 09:05:00,52.0,50.6,29.76,NNE,29,2.0,4.0,95,0.00,,,0.10,WeatherCatV1.15B25,2013-05-29 16:05:00,
2013-05-29 09:10:00,52.4,50.7,29.76,North,356,1.0,2.0,94,0.00,,,0.10,WeatherCatV1.15B25,2013-05-29 16:10:00,
2013-05-29 09:15:00,53.2,51.2,29.76,NE,40,3.0,3.0,93,0.00,,,0.10,WeatherCatV1.15B25,2013-05-29 16:15:00,
2013-05-29 09:20:00,53.7,51.7,29.76,ENE,72,1.0,2.0,93,0.00,,,0.10,WeatherCatV1.15B25,2013-05-29 16:20:00,
2013-05-29 09:25:00,54.3,52.0,29.76,ESE,105,2.0,2.0,92,0.00,,,0.10,WeatherCatV1.15B25,2013-05-29 16:25:00,
2013-05-29 09:30:00,54.6,51.4,29.77,ENE,66,2.0,3.0,89,0.00,,,0.10,WeatherCatV1.15B25,2013-05-29 16:30:00,
2013-05-29 09:35:00,54.7,51.5,29.76,NNE,28,1.0,4.0,89,0.00,,,0.10,WeatherCatV1.15B25,2013-05-29 16:35:00,
2013-05-29 09:40:00,54.7,50.9,29.77,NE,46,3.0,7.0,87,0.00,,,0.10,WeatherCatV1.15B25,2013-05-29 16:40:00,
2013-05-29 09:45:00,54.5,50.7,29.76,NNE,17,2.0,6.0,87,0.00,,,0.10,WeatherCatV1.15B25,2013-05-29 16:45:00,
2013-05-29 09:50:00,54.4,50.9,29.77,ENE,57,2.0,4.0,88,0.00,,,0.10,WeatherCatV1.15B25,2013-05-29 16:50:00,
2013-05-29 09:55:00,55.4,51.6,29.77,East,88,3.0,3.0,87,0.00,,,0.10,WeatherCatV1.15B25,2013-05-29 16:55:00,
2013-05-29 10:00:00,55.7,51.6,29.77,NE,34,2.0,2.0,86,0.00,,,0.10,WeatherCatV1.15B25,2013-05-29 17:00:00,
2013-05-29 10:05:00,56.2,51.7,29.77,NNE,26,4.0,4.0,85,0.00,,,0.10,WeatherCatV1.15B25,2013-05-29 17:05:00,
2013-05-29 10:10:00,56.6,51.8,29.77,NE,49,3.0,5.0,84,0.00,,,0.10,WeatherCatV1.15B25,2013-05-29 17:10:00,
2013-05-29 10:15:00,56.2,51.1,29.78,NNE,32,0.0,2.0,83,0.00,,,0.10,WeatherCatV1.15B25,2013-05-29 17:15:00,
2013-05-29 10:20:00,56.2,51.7,29.78,West,269,0.0,1.0,85,0.00,,,0.10,WeatherCatV1.15B25,2013-05-29 17:20:00,
2013-05-29 10:25:00,56.5,51.7,29.78,North,8,1.0,1.0,84,0.00,,,0.10,WeatherCatV1.15B25,2013-05-29 17:25:00,
2013-05-29 10:30:00,56.1,51.3,29.78,NNW,328,2.0,3.0,84,0.00,,,0.10,WeatherCatV1.15B25,2013-05-29 17:30:00,
2013-05-29 10:35:00,55.5,50.7,29.78,WNW,298,3.0,7.0,84,0.00,,,0.10,WeatherCatV1.15B25,2013-05-29 17:35:00,
2013-05-29 10:40:00,54.8,51.0,29.79,WNW,288,4.0,9.0,87,0.00,,,0.10,WeatherCatV1.15B25,2013-05-29 17:40:00,
2013-05-29 10:45:00,54.5,51.3,29.79,West,278,4.0,7.0,89,0.00,,,0.10,WeatherCatV1.15B25,2013-05-29 17:45:00,
2013-05-29 10:50:00,54.4,51.2,29.79,SW,228,5.0,6.0,89,0.00,,,0.10,WeatherCatV1.15B25,2013-05-29 17:50:00,
2013-05-29 10:55:00,54.0,50.5,29.80,West,269,4.0,8.0,88,0.00,,,0.10,WeatherCatV1.15B25,2013-05-29 17:55:00,
2013-05-29 11:00:00,53.6,50.4,29.80,WNW,298,2.0,7.0,89,0.00,,,0.10,WeatherCatV1.15B25,2013-05-29 18:00:00,
2013-05-29 11:05:00,53.7,50.5,29.80,WNW,298,3.0,5.0,89,0.00,,,0.10,WeatherCatV1.15B25,2013-05-29 18:05:00,
2013-05-29 11:10:00,53.6,50.1,29.81,WNW,285,3.0,5.0,88,0.00,,,0.10,WeatherCatV1.15B25,2013-05-29 18:10:00,
2013-05-29 11:15:00,53.8,49.7,29.81,NW,304,4.0,6.0,86,0.00,,,0.10,WeatherCatV1.15B25,2013-05-29 18:15:00,
2013-05-29 11:20:00,54.3,50.5,29.81,West,262,1.0,2.0,87,0.00,,,0.10,WeatherCatV1.15B25,2013-05-29 18:20:00,
2013-05-29 11:25:00,54.7,50.3,29.81,SW,231,4.0,5.0,85,0.00,,,0.10,WeatherCatV1.15B25,2013-05-29 18:25:00,
2013-05-29 11:30:00,55.0,50.6,29.81,SW,229,5.0,5.0,85,0.00,,,0.10,WeatherCatV1.15B25,2013-05-29 18:30:00,
2013-05-29 11:35:00,54.9,50.5,29.82,South,188,3.0,6.0,85,0.00,,,0.10,WeatherCatV1.15B25,2013-05-29 18:35:00,
2013-05-29 11:40:00,54.8,50.7,29.82,SW,215,4.0,5.0,86,0.00,,,0.10,WeatherCatV1.15B25,2013-05-29 18:40:00,
2013-05-29 11:45:00,54.7,50.3,29.82,South,171,1.0,7.0,85,0.00,,,0.10,WeatherCatV1.15B25,2013-05-29 18:45:00,
2013-05-29 11:50:00,54.8,50.1,29.82,SW,219,3.0,6.0,84,0.00,,,0.10,WeatherCatV1.15B25,2013-05-29 18:50:00,
2013-05-29 11:55:00,54.8,49.7,29.82,West,270,3.0,4.0,83,0.00,,,0.10,WeatherCatV1.15B25,2013-05-29 18:55:00,
2013-05-29 12:00:00,54.8,51.0,29.83,SW,222,9.0,9.0,87,0.00,,,0.10,WeatherCatV1.15B25,2013-05-29 19:00:00,
2013-05-29 12:05:00,54.7,50.9,29.83,SW,233,5.0,9.0,87,0.00,,,0.10,WeatherCatV1.15B25,2013-05-29 19:05:00,
2013-05-29 12:10:00,54.6,49.9,29.83,SW,218,11.0,12.0,84,0.00,,,0.10,WeatherCatV1.15B25,2013-05-29 19:10:00,
2013-05-29 12:15:00,54.6,50.2,29.83,NW,310,2.0,10.0,85,0.00,,,0.10,WeatherCatV1.15B25,2013-05-29 19:15:00,
2013-05-29 12:20:00,55.0,50.3,29.84,SSE,153,6.0,9.0,84,0.00,,,0.10,WeatherCatV1.15B25,2013-05-29 19:20:00,
2013-05-29 12:25:00,55.0,49.6,29.84,SSE,155,3.0,9.0,82,0.00,,,0.10,WeatherCatV1.15B25,2013-05-29 19:25:00,
2013-05-29 12:30:00,55.4,50.6,29.84,SSW,203,5.0,11.0,84,0.00,,,0.10,WeatherCatV1.15B25,2013-05-29 19:30:00,
2013-05-29 12:35:00,55.4,49.7,29.84,SSW,208,9.0,9.0,81,0.00,,,0.10,WeatherCatV1.15B25,2013-05-29 19:35:00,
2013-05-29 12:40:00,55.3,49.6,29.85,SSW,194,7.0,13.0,81,0.00,,,0.10,WeatherCatV1.15B25,2013-05-29 19:40:00,
2013-05-29 12:45:00,55.4,50.0,29.85,SSW,211,5.0,7.0,82,0.00,,,0.10,WeatherCatV1.15B25,2013-05-29 19:45:00,
2013-05-29 12:50:00,55.7,50.0,29.85,West,269,5.0,8.0,81,0.00,,,0.10,WeatherCatV1.15B25,2013-05-29 19:50:00,
2013-05-29 12:55:00,56.1,50.3,29.85,SE,146,2.0,8.0,81,0.00,,,0.10,WeatherCatV1.15B25,2013-05-29 19:55:00,
2013-05-29 13:00:00,56.3,50.2,29.85,SW,222,5.0,5.0,80,0.00,,,0.10,WeatherCatV1.15B25,2013-05-29 20:00:00,
2013-05-29 13:05:00,56.3,49.9,29.85,WSW,253,3.0,8.0,79,0.00,,,0.10,WeatherCatV1.15B25,2013-05-29 20:05:00,
2013-05-29 13:10:00,56.2,50.1,29.85,SW,226,10.0,12.0,80,0.00,,,0.10,WeatherCatV1.15B25,2013-05-29 20:10:00,
2013-05-29 13:15:00,55.8,49.7,29.86,SSW,208,10.0,10.0,80,0.00,,,0.10,WeatherCatV1.15B25,2013-05-29 20:15:00,
2013-05-29 13:20:00,55.7,48.9,29.86,WSW,250,7.0,11.0,78,0.00,,,0.10,WeatherCatV1.15B25,2013-05-29 20:20:00,
2013-05-29 13:25:00,55.6,49.2,29.86,SSW,208,8.0,11.0,79,0.00,,,0.10,WeatherCatV1.15B25,2013-05-29 20:25:00,
2013-05-29 13:30:00,55.3,48.6,29.86,SSW,204,5.0,10.0,78,0.00,,,0.10,WeatherCatV1.15B25,2013-05-29 20:30:00,
2013-05-29 13:35:00,55.0,47.9,29.86,SSW,211,14.0,14.0,77,0.00,,,0.10,WeatherCatV1.15B25,2013-05-29 20:35:00,
2013-05-29 13:40:00,54.9,48.2,29.86,South,184,8.0,14.0,78,0.00,,,0.10,WeatherCatV1.15B25,2013-05-29 20:40:00,
2013-05-29 13:45:00,55.1,48.4,29.86,SSW,211,4.0,11.0,78,0.00,,,0.10,WeatherCatV1.15B25,2013-05-29 20:45:00,
2013-05-29 13:50:00,55.3,48.6,29.87,WSW,246,7.0,11.0,78,0.00,,,0.10,WeatherCatV1.15B25,2013-05-29 20:50:00,
2013-05-29 13:55:00,55.4,49.0,29.87,SW,222,9.0,10.0,79,0.00,,,0.10,WeatherCatV1.15B25,2013-05-29 20:55:00,
2013-05-29 14:00:00,55.5,48.8,29.87,North,4,2.0,13.0,78,0.00,,,0.10,WeatherCatV1.15B25,2013-05-29 21:00:00,
2013-05-29 14:05:00,55.6,49.2,29.87,SW,222,10.0,13.0,79,0.00,,,0.10,WeatherCatV1.15B25,2013-05-29 21:05:00,
2013-05-29 14:10:00,55.6,48.5,29.88,SW,219,14.0,16.0,77,0.00,,,0.10,WeatherCatV1.15B25,2013-05-29 21:10:00,
2013-05-29 14:15:00,55.8,48.7,29.88,SW,224,4.0,13.0,77,0.00,,,0.10,WeatherCatV1.15B25,2013-05-29 21:15:00,
2013-05-29 14:20:00,55.9,48.8,29.88,SW,218,3.0,7.0,77,0.00,,,0.10,WeatherCatV1.15B25,2013-05-29 21:20:00,
2013-05-29 14:25:00,56.2,48.7,29.88,SSE,156,4.0,8.0,76,0.00,,,0.10,WeatherCatV1.15B25,2013-05-29 21:25:00,
2013-05-29 14:30:00,56.3,49.2,29.88,SSE,159,13.0,15.0,77,0.00,,,0.10,WeatherCatV1.15B25,2013-05-29 21:30:00,
2013-05-29 14:35:00,56.5,49.7,29.88,WNW,293,8.0,11.0,78,0.00,,,0.10,WeatherCatV1.15B25,2013-05-29 21:35:00,
2013-05-29 14:40:00,56.3,48.8,29.89,SW,236,9.0,20.0,76,0.00,,,0.10,WeatherCatV1.15B25,2013-05-29 21:40:00,
2013-05-29 14:45:00,55.4,48.7,29.89,South,189,3.0,19.0,78,0.00,,,0.10,WeatherCatV1.15B25,2013-05-29 21:45:00,
2013-05-29 14:50:00,54.9,49.2,29.90,SW,229,4.0,7.0,81,0.00,,,0.10,WeatherCatV1.15B25,2013-05-29 21:50:00,
2013-05-29 14:55:00,54.3,48.6,29.90,SSW,208,6.0,11.0,81,0.00,,,0.10,WeatherCatV1.15B25,2013-05-29 21:55:00,
2013-05-29 15:00:00,54.4,49.3,29.90,SW,222,5.0,7.0,83,0.00,,,0.10,WeatherCatV1.15B25,2013-05-29 22:00:00,
2013-05-29 15:05:00,54.7,50.0,29.89,SE,146,5.0,9.0,84,0.00,,,0.10,WeatherCatV1.15B25,2013-05-29 22:05:00,
2013-05-29 15:10:00,55.0,50.3,29.90,SW,224,7.0,7.0,84,0.00,,,0.10,WeatherCatV1.15B25,2013-05-29 22:10:00,
2013-05-29 15:15:00,55.1,49.7,29.90,SSW,204,3.0,10.0,82,0.00,,,0.10,WeatherCatV1.15B25,2013-05-29 22:15:00,
2013-05-29 15:20:00,55.2,50.4,29.90,SE,142,9.0,9.0,84,0.00,,,0.10,WeatherCatV1.15B25,2013-05-29 22:20:00,
2013-05-29 15:25:00,55.1,50.4,29.90,South,188,6.0,11.0,84,0.00,,,0.10,WeatherCatV1.15B25,2013-05-29 22:25:00,
2013-05-29 15:30:00,55.3,51.2,29.90,SSW,210,4.0,7.0,86,0.00,,,0.10,WeatherCatV1.15B25,2013-05-29 22:30:00,
2013-05-29 15:35:00,55.8,51.4,29.90,SW,226,6.0,11.0,85,0.00,,,0.10,WeatherCatV1.15B25,2013-05-29 22:35:00,
2013-05-29 15:40:00,56.5,50.7,29.90,West,267,1.0,8.0,81,0.00,,,0.10,WeatherCatV1.15B25,2013-05-29 22:40:00,
2013-05-29 15:45:00,57.0,51.6,29.90,SW,236,4.0,7.0,82,0.00,,,0.10,WeatherCatV1.15B25,2013-05-29 22:45:00,
2013-05-29 15:50:00,57.1,51.7,29.90,SSE,165,6.0,7.0,82,0.00,,,0.10,WeatherCatV1.15B25,2013-05-29 22:50:00,
2013-05-29 15:55:00,57.0,51.6,29.90,WSW,258,7.0,14.0,82,0.00,,,0.10,WeatherCatV1.15B25,2013-05-29 22:55:00,
2013-05-29 16:00:00,57.2,49.3,29.91,SSW,211,12.0,19.0,75,0.00,,,0.10,WeatherCatV1.15B25,2013-05-29 23:00:00,
2013-05-29 16:05:00,57.1,48.9,29.91,SSW,195,7.0,17.0,74,0.00,,,0.10,WeatherCatV1.15B25,2013-05-29 23:05:00,
2013-05-29 16:10:00,57.3,49.1,29.91,West,272,11.0,17.0,74,0.00,,,0.10,WeatherCatV1.15B25,2013-05-29 23:10:00,
2013-05-29 16:15:00,57.5,48.9,29.91,SW,215,13.0,19.0,73,0.00,,,0.10,WeatherCatV1.15B25,2013-05-29 23:15:00,
2013-05-29 16:20:00,57.8,49.2,29.91,WSW,250,11.0,15.0,73,0.00,,,0.10,WeatherCatV1.15B25,2013-05-29 23:20:00,
2013-05-29 16:25:00,58.1,49.1,29.91,SSW,208,6.0,13.0,72,0.00,,,0.10,WeatherCatV1.15B25,2013-05-29 23:25:00,
2013-05-29 16:30:00,58.5,49.9,29.91,WSW,239,11.0,12.0,73,0.00,,,0.10,WeatherCatV1.15B25,2013-05-29 23:30:00,
2013-05-29 16:35:00,58.2,49.2,29.91,NW,308,4.0,17.0,72,0.00,,,0.10,WeatherCatV1.15B25,2013-05-29 23:35:00,
2013-05-29 16:40:00,58.7,49.7,29.92,SSW,208,8.0,18.0,72,0.00,,,0.10,WeatherCatV1.15B25,2013-05-29 23:40:00,
2013-05-29 16:45:00,58.7,49.3,29.92,SSW,198,9.0,16.0,71,0.00,,,0.10,WeatherCatV1.15B25,2013-05-29 23:45:00,
2013-05-29 16:50:00,59.0,49.6,29.92,WSW,249,7.0,18.0,71,0.00,,,0.10,WeatherCatV1.15B25,2013-05-29 23:50:00,
2013-05-29 16:55:00,59.5,49.3,29.92,SSW,208,18.0,19.0,69,0.00,,,0.10,WeatherCatV1.15B25,2013-05-29 23:55:00,
2013-05-29 17:00:00,59.1,48.9,29.92,SSW,195,12.0,15.0,69,0.00,,,0.10,WeatherCatV1.15B25,2013-05-30 00:00:00,
2013-05-29 17:05:00,58.6,48.8,29.92,SSW,204,6.0,16.0,70,0.00,,,0.10,WeatherCatV1.15B25,2013-05-30 00:05:00,
2013-05-29 17:10:00,58.4,48.7,29.92,SW,217,20.0,21.0,70,0.00,,,0.10,WeatherCatV1.15B25,2013-05-30 00:10:00,
2013-05-29 17:15:00,57.5,48.5,29.92,SSW,198,17.0,26.0,72,0.00,,,0.10,WeatherCatV1.15B25,2013-05-30 00:15:00,
2013-05-29 17:20:00,57.3,48.3,29.92,SW,226,11.0,20.0,72,0.00,,,0.10,WeatherCatV1.15B25,2013-05-30 00:20:00,
2013-05-29 17:25:00,57.3,48.7,29.93,SW,215,9.0,19.0,73,0.00,,,0.10,WeatherCatV1.15B25,2013-05-30 00:25:00,
2013-05-29 17:30:00,57.5,48.9,29.92,West,264,8.0,19.0,73,0.00,,,0.10,WeatherCatV1.15B25,2013-05-30 00:30:00,
2013-05-29 17:35:00,57.9,48.2,29.93,SW,225,17.0,21.0,70,0.00,,,0.10,WeatherCatV1.15B25,2013-05-30 00:35:00,
2013-05-29 17:40:00,57.5,47.8,29.93,SW,232,13.0,20.0,70,0.00,,,0.10,WeatherCatV1.15B25,2013-05-30 00:40:00,
2013-05-29 17:45:00,57.2,47.9,29.93,SW,218,13.0,26.0,71,0.00,,,0.10,WeatherCatV1.15B25,2013-05-30 00:45:00,
2013-05-29 17:50:00,57.1,48.2,29.94,SW,233,9.0,12.0,72,0.00,,,0.10,WeatherCatV1.15B25,2013-05-30 00:50:00,
2013-05-29 17:55:00,56.9,48.3,29.94,SSW,203,13.0,16.0,73,0.00,,,0.10,WeatherCatV1.15B25,2013-05-30 00:55:00,
2013-05-29 18:00:00,56.9,48.3,29.94,WNW,293,5.0,10.0,73,0.00,,,0.10,WeatherCatV1.15B25,2013-05-30 01:00:00,
2013-05-29 18:05:00,57.0,48.4,29.93,SW,226,10.0,14.0,73,0.00,,,0.10,WeatherCatV1.15B25,2013-05-30 01:05:00,
2013-05-29 18:10:00,57.2,48.3,29.94,SSW,198,5.0,18.0,72,0.00,,,0.10,WeatherCatV1.15B25,2013-05-30 01:10:00,
2013-05-29 18:15:00,57.2,48.6,29.93,SSW,212,5.0,6.0,73,0.00,,,0.10,WeatherCatV1.15B25,2013-05-30 01:15:00,
2013-05-29 18:20:00,57.3,48.3,29.94,SE,142,5.0,12.0,72,0.00,,,0.10,WeatherCatV1.15B25,2013-05-30 01:20:00,
2013-05-29 18:25:00,57.1,48.2,29.94,SW,233,4.0,12.0,72,0.00,,,0.10,WeatherCatV1.15B25,2013-05-30 01:25:00,
2013-05-29 18:30:00,56.9,48.0,29.94,South,169,7.0,13.0,72,0.00,,,0.10,WeatherCatV1.15B25,2013-05-30 01:30:00,
2013-05-29 18:35:00,56.6,47.7,29.94,WSW,257,5.0,12.0,72,0.00,,,0.10,WeatherCatV1.15B25,2013-05-30 01:35:00,
2013-05-29 18:40:00,56.5,47.9,29.94,SSW,208,6.0,16.0,73,0.00,,,0.10,WeatherCatV1.15B25,2013-05-30 01:40:00,
2013-05-29 18:45:00,56.7,48.1,29.94,WNW,284,1.0,6.0,73,0.00,,,0.10,WeatherCatV1.15B25,2013-05-30 01:45:00,
2013-05-29 18:50:00,56.8,47.9,29.94,SW,215,7.0,15.0,72,0.00,,,0.10,WeatherCatV1.15B25,2013-05-30 01:50:00,
2013-05-29 18:55:00,56.7,48.1,29.95,SSW,200,6.0,14.0,73,0.00,,,0.10,WeatherCatV1.15B25,2013-05-30 01:55:00,
2013-05-29 19:00:00,56.7,47.8,29.95,WSW,238,9.0,14.0,72,0.00,,,0.10,WeatherCatV1.15B25,2013-05-30 02:00:00,
2013-05-29 19:05:00,56.7,48.1,29.95,SW,226,6.0,9.0,73,0.00,,,0.10,WeatherCatV1.15B25,2013-05-30 02:05:00,
2013-05-29 19:10:00,56.4,47.5,29.95,SW,228,6.0,19.0,72,0.00,,,0.10,WeatherCatV1.15B25,2013-05-30 02:10:00,
2013-05-29 19:15:00,56.0,47.5,29.95,SW,218,8.0,14.0,73,0.00,,,0.10,WeatherCatV1.15B25,2013-05-30 02:15:00,
2013-05-29 19:20:00,55.8,47.6,29.95,NW,314,4.0,4.0,74,0.00,,,0.10,WeatherCatV1.15B25,2013-05-30 02:20:00,
2013-05-29 19:25:00,55.7,47.5,29.96,SW,224,10.0,10.0,74,0.00,,,0.10,WeatherCatV1.15B25,2013-05-30 02:25:00,
2013-05-29 19:30:00,55.5,47.7,29.96,SW,231,9.0,11.0,75,0.00,,,0.10,WeatherCatV1.15B25,2013-05-30 02:30:00,
2013-05-29 19:32:00,55.4,47.3,29.96,SSW,197,8.0,11.0,74,0.00,,,0.10,WeatherCatV1.15B25,2013-05-30 02:32:00,
2013-05-29 19:37:00,55.2,47.4,29.96,WSW,243,7.0,13.0,75,0.00,,,0.10,WeatherCatV1.15B25,2013-05-30 02:37:00,
2013-05-29 19:42:00,55.1,47.3,29.97,SW,219,13.0,13.0,75,0.00,,,0.10,WeatherCatV1.15B25,2013-05-30 02:42:00,
2013-05-29 19:47:00,55.0,47.2,29.97,WSW,242,4.0,10.0,75,0.00,,,0.10,WeatherCatV1.15B25,2013-05-30 02:47:00,
2013-05-29 19:52:00,54.8,47.4,29.97,WSW,240,7.0,11.0,76,0.00,,,0.10,WeatherCatV1.15B25,2013-05-30 02:52:00,
2013-05-29 19:57:00,54.5,47.1,29.97,SSW,209,7.0,7.0,76,0.00,,,0.10,WeatherCatV1.15B25,2013-05-30 02:57:00,
2013-05-29 20:02:00,54.4,47.3,29.97,WSW,253,8.0,10.0,77,0.00,,,0.10,WeatherCatV1.15B25,2013-05-30 03:02:00,
2013-05-29 20:07:00,54.2,46.8,29.97,SW,226,11.0,15.0,76,0.00,,,0.10,WeatherCatV1.15B25,2013-05-30 03:07:00,
2013-05-29 20:12:00,54.1,47.0,29.97,SE,143,2.0,10.0,77,0.00,,,0.10,WeatherCatV1.15B25,2013-05-30 03:12:00,
2013-05-29 20:17:00,54.0,47.0,29.97,SW,217,7.0,18.0,77,0.00,,,0.10,WeatherCatV1.15B25,2013-05-30 03:17:00,
2013-05-29 20:22:00,54.0,47.0,29.97,SSE,159,4.0,7.0,77,0.00,,,0.10,WeatherCatV1.15B25,2013-05-30 03:22:00,
2013-05-29 20:27:00,53.9,46.9,29.98,South,174,5.0,5.0,77,0.00,,,0.10,WeatherCatV1.15B25,2013-05-30 03:27:00,
2013-05-29 20:32:00,53.9,46.9,29.98,West,263,0.0,2.0,77,0.00,,,0.10,WeatherCatV1.15B25,2013-05-30 03:32:00,
2013-05-29 20:37:00,53.8,46.8,29.98,South,177,4.0,7.0,77,0.00,,,0.10,WeatherCatV1.15B25,2013-05-30 03:37:00,
2013-05-29 20:42:00,53.8,46.8,29.98,WSW,250,2.0,5.0,77,0.00,,,0.10,WeatherCatV1.15B25,2013-05-30 03:42:00,
2013-05-29 20:47:00,53.8,47.1,29.98,SW,221,2.0,6.0,78,0.00,,,0.10,WeatherCatV1.15B25,2013-05-30 03:47:00,
2013-05-29 20:52:00,53.8,47.1,29.98,SW,232,0.0,1.0,78,0.00,,,0.10,WeatherCatV1.15B25,2013-05-30 03:52:00,
2013-05-29 20:57:00,53.7,47.0,29.98,South,190,3.0,5.0,78,0.00,,,0.10,WeatherCatV1.15B25,2013-05-30 03:57:00,
2013-05-29 21:01:00,53.7,47.7,29.99,WSW,246,0.0,1.0,80,0.00,,,0.10,WeatherCatV1.15B25,2013-05-30 04:01:00,
2013-05-29 21:06:00,53.6,47.2,29.99,West,280,0.0,0.0,79,0.00,,,0.10,WeatherCatV1.15B25,2013-05-30 04:06:00,
2013-05-29 21:11:00,53.6,47.2,29.99,SSE,156,1.0,1.0,79,0.00,,,0.10,WeatherCatV1.15B25,2013-05-30 04:11:00,
2013-05-29 21:16:00,53.7,47.3,29.99,SW,236,2.0,6.0,79,0.00,,,0.10,WeatherCatV1.15B25,2013-05-30 04:16:00,
2013-05-29 21:21:00,53.7,47.3,29.99,SSE,158,4.0,7.0,79,0.00,,,0.10,WeatherCatV1.15B25,2013-05-30 04:21:00,
2013-05-29 21:26:00,53.7,47.3,29.99,SSW,201,2.0,5.0,79,0.00,,,0.10,WeatherCatV1.15B25,2013-05-30 04:26:00,
2013-05-29 21:31:00,53.6,47.6,29.99,SSW,211,7.0,9.0,80,0.00,,,0.10,WeatherCatV1.15B25,2013-05-30 04:31:00,
2013-05-29 21:36:00,53.7,47.7,29.99,SSW,194,4.0,7.0,80,0.00,,,0.10,WeatherCatV1.15B25,2013-05-30 04:36:00,
2013-05-29 21:41:00,53.6,47.6,29.99,WSW,243,8.0,13.0,80,0.00,,,0.10,WeatherCatV1.15B25,2013-05-30 04:41:00,
2013-05-29 21:46:00,53.6,47.6,30.00,South,191,6.0,6.0,80,0.00,,,0.10,WeatherCatV1.15B25,2013-05-30 04:46:00,
2013-05-29 21:51:00,53.6,47.6,30.00,WSW,239,6.0,7.0,80,0.00,,,0.10,WeatherCatV1.15B25,2013-05-30 04:51:00,
2013-05-29 21:56:00,53.4,47.4,30.00,SW,222,7.0,13.0,80,0.00,,,0.10,WeatherCatV1.15B25,2013-05-30 04:56:00,
2013-05-29 22:01:00,53.4,47.1,30.00,South,189,11.0,14.0,79,0.00,,,0.10,WeatherCatV1.15B25,2013-05-30 05:01:00,
2013-05-29 22:06:00,53.4,47.4,30.00,SSW,211,5.0,12.0,80,0.00,,,0.10,WeatherCatV1.15B25,2013-05-30 05:06:00,
2013-05-29 22:11:00,53.4,47.1,30.00,SW,235,7.0,13.0,79,0.00,,,0.10,WeatherCatV1.15B25,2013-05-30 05:11:00,
2013-05-29 22:16:00,53.3,47.3,30.00,WSW,242,4.0,8.0,80,0.00,,,0.10,WeatherCatV1.15B25,2013-05-30 05:16:00,
2013-05-29 22:21:00,53.3,47.3,30.00,SW,228,5.0,8.0,80,0.00,,,0.10,WeatherCatV1.15B25,2013-05-30 05:21:00,
2013-05-29 22:26:00,53.2,47.2,30.01,SW,218,3.0,6.0,80,0.00,,,0.10,WeatherCatV1.15B25,2013-05-30 05:26:00,
2013-05-29 22:31:00,53.2,47.5,30.01,SSW,207,4.0,4.0,81,0.00,,,0.10,WeatherCatV1.15B25,2013-05-30 05:31:00,
2013-05-29 22:36:00,53.1,47.4,30.01,SSW,204,6.0,8.0,81,0.00,,,0.10,WeatherCatV1.15B25,2013-05-30 05:36:00,
2013-05-29 22:41:00,53.1,47.4,30.01,SSE,167,4.0,9.0,81,0.00,,,0.10,WeatherCatV1.15B25,2013-05-30 05:41:00,
2013-05-29 22:46:00,53.0,47.7,30.01,SSE,156,2.0,6.0,82,0.00,,,0.10,WeatherCatV1.15B25,2013-05-30 05:46:00,
2013-05-29 22:51:00,52.9,47.9,30.02,South,189,10.0,10.0,83,0.00,,,0.10,WeatherCatV1.15B25,2013-05-30 05:51:00,
2013-05-29 22:56:00,52.7,48.0,30.02,SW,215,4.0,10.0,84,0.00,,,0.10,WeatherCatV1.15B25,2013-05-30 05:56:00,
2013-05-29 23:01:00,52.5,47.8,30.02,SSW,194,5.0,10.0,84,0.00,,,0.10,WeatherCatV1.15B25,2013-05-30 06:01:00,
2013-05-29 23:06:00,52.4,48.0,30.02,SW,214,7.0,8.0,85,0.00,,,0.10,WeatherCatV1.15B25,2013-05-30 06:06:00,
2013-05-29 23:11:00,52.3,48.2,30.02,SE,127,5.0,7.0,86,0.00,,,0.10,WeatherCatV1.15B25,2013-05-30 06:11:00,
2013-05-29 23:16:00,52.2,48.4,30.02,South,187,3.0,11.0,87,0.00,,,0.10,WeatherCatV1.15B25,2013-05-30 06:16:00,
2013-05-29 23:21:00,52.0,48.3,30.02,SSE,160,4.0,5.0,87,0.00,,,0.10,WeatherCatV1.15B25,2013-05-30 06:21:00,
2013-05-29 23:26:00,51.9,48.5,30.02,South,174,4.0,9.0,88,0.00,,,0.10,WeatherCatV1.15B25,2013-05-30 06:26:00,
2013-05-29 23:31:00,51.8,48.4,30.02,SSE,150,5.0,10.0,88,0.00,,,0.10,WeatherCatV1.15B25,2013-05-30 06:31:00,
2013-05-29 23:36:00,51.7,48.3,30.03,SSW,207,4.0,13.0,88,0.00,,,0.10,WeatherCatV1.15B25,2013-05-30 06:36:00,
2013-05-29 23:41:00,51.7,48.3,30.03,South,190,7.0,9.0,88,0.00,,,0.10,WeatherCatV1.15B25,2013-05-30 06:41:00,
2013-05-29 23:46:00,51.6,48.2,30.03,SW,236,7.0,8.0,88,0.00,,,0.10,WeatherCatV1.15B25,2013-05-30 06:46:00,
2013-05-29 23:51:00,51.5,48.4,30.03,SSW,199,3.0,5.0,89,0.00,,,0.10,WeatherCatV1.15B25,2013-05-30 06:51:00,
2013-05-29 23:56:00,51.4,48.3,30.03,South,172,7.0,8.0,89,0.00,,,0.10,WeatherCatV1.15B25,2013-05-30 06:56:00,